MiSS Peggy Ann — WDD9336 — position and weather

sailwx.info

Track history (hours):
 
Tides and Currents Weather Stations Pressure Air Temp Water Temp Dewpoint Dewpoint Depression Visibility Wind Speed Wind Dir Waves Ship Positions

MiSS Peggy Ann

Owner: Rodi Marine LLC, Lafayette, LA. More information available from US FCC via Universal Licensing System and Coast Guard Vessel Documentation Center.

Last reported at 2018-Jun-22 01:47 UTC. Time now 2018-Jun-24 20:33 UTC.
Position N 29°37' W 092°16'.

; draft 2.2 m.

Type: Passenger vessel. MMSI: 367309990.

Date/timePositionNaut miles runAvg speedWind from/ knotsBaromVisibWave heightAir tempDewpointWater temp
2018-Jun-22 01:47N 29°37' W 092°16'312.8
2018-Jun-22 01:30N 29°41' W 092°15'611.4
2018-Jun-22 01:00N 29°46' W 092°12'1 2.8
2018-Jun-22 00:30N 29°47' W 092°11'1 1.8
2018-Jun-22 00:01N 29°46' W 092°11'815.4
2018-Jun-21 23:30N 29°39' W 092°16'2 0.1
2018-Jun-20 06:57N 29°37' W 092°17'716.6
2018-Jun-20 06:30N 29°44' W 092°14'4 7.2
2018-Jun-20 06:00N 29°47' W 092°11'0 0.0
2018-Jun-20 05:28N 29°47' W 092°11'0 0.0
2018-Jun-20 04:59N 29°47' W 092°11'0 0.0
2018-Jun-20 04:30N 29°47' W 092°11'0 0.0
2018-Jun-20 03:59N 29°47' W 092°11'1 1.6
2018-Jun-20 03:30N 29°47' W 092°10'612.6
2018-Jun-20 03:00N 29°42' W 092°15'  
2018-Jun-14 08:50N 29°37' W 092°17'413.3
2018-Jun-14 08:30N 29°41' W 092°15'510.6
2018-Jun-14 08:00N 29°45' W 092°12'2 3.7
2018-Jun-14 07:30N 29°47' W 092°11'0 0.0
2018-Jun-14 07:00N 29°47' W 092°11'0 0.3
2018-Jun-14 06:30N 29°47' W 092°11'0 0.3
2018-Jun-14 05:59N 29°47' W 092°11'1 1.6
2018-Jun-14 05:30N 29°46' W 092°10'917.9
2018-Jun-14 05:00N 29°39' W 092°16'  
Track history (hours):
 
Tides and Currents Weather Stations Pressure Air Temp Water Temp Dewpoint Dewpoint Depression Visibility Wind Speed Wind Dir Waves Ship Positions

MiSS Peggy Ann

Owner: Rodi Marine LLC, Lafayette, LA. More information available from US FCC via Universal Licensing System and Coast Guard Vessel Documentation Center.

Last reported at 2018-Jun-22 01:47 UTC. Time now 2018-Jun-24 20:34 UTC.
Position N 29°37' W 092°16'.

; draft 2.2 m.

Type: Passenger vessel. MMSI: 367309990.

Date/timePositionNaut miles runAvg speedWind from/ knotsBaromVisibWave heightAir tempDewpointWater temp
2018-Jun-22 01:47N 29°37' W 092°16'312.8
2018-Jun-22 01:30N 29°41' W 092°15'611.4
2018-Jun-22 01:00N 29°46' W 092°12'1 2.8
2018-Jun-22 00:30N 29°47' W 092°11'1 1.8
2018-Jun-22 00:01N 29°46' W 092°11'815.4
2018-Jun-21 23:30N 29°39' W 092°16'2 0.1
2018-Jun-20 06:57N 29°37' W 092°17'716.6
2018-Jun-20 06:30N 29°44' W 092°14'4 7.2
2018-Jun-20 06:00N 29°47' W 092°11'0 0.0
2018-Jun-20 05:28N 29°47' W 092°11'0 0.0
2018-Jun-20 04:59N 29°47' W 092°11'0 0.0
2018-Jun-20 04:30N 29°47' W 092°11'0 0.0
2018-Jun-20 03:59N 29°47' W 092°11'1 1.6
2018-Jun-20 03:30N 29°47' W 092°10'612.6
2018-Jun-20 03:00N 29°42' W 092°15'  
2018-Jun-14 08:50N 29°37' W 092°17'413.3
2018-Jun-14 08:30N 29°41' W 092°15'510.6
2018-Jun-14 08:00N 29°45' W 092°12'2 3.7
2018-Jun-14 07:30N 29°47' W 092°11'0 0.0
2018-Jun-14 07:00N 29°47' W 092°11'0 0.3
2018-Jun-14 06:30N 29°47' W 092°11'0 0.3
2018-Jun-14 05:59N 29°47' W 092°11'1 1.6
2018-Jun-14 05:30N 29°46' W 092°10'917.9
2018-Jun-14 05:00N 29°39' W 092°16'  

Dump ship's entire track history